Patton Village, California
Current Conditions -  °F | °C
As of 9:55 AM on Friday 19 Dec 2014 (Local Time) from KRTS Reporting Station
Broken Clouds Broken Clouds  
Wind Chill: 37°   Ceiling: 4200
Heat Index: 45°   Visibility: 10mi
Dew Point: 30°   Wind: 16mph
Humidity: 57%   Direction: 260°W
Pressure: 30.1"   Gusts: NA
Location:  40.3266°N, 120.122°W
Report Text: KRTS 191755Z AUTO 26014KT 10SM BKN042 07/M01 A3010 RMK AO2
Loading
Personal Weather Stations






























Interactive Weather Map New forecast layout! Learn more

10-Day Weather Forecast

Advertisements
Track Severe Weather on mobile